sensor_id;sensor_type;location;lat;lon;timestamp;pressure;altitude;pressure_sealevel;temperature;humidity
80648;BME280;70012;0.000;0.000;2024-02-26T00:02:07;98798.13;;;5.56;75.62
80648;BME280;70012;0.000;0.000;2024-02-26T00:04:34;98793.75;;;5.55;75.45
80648;BME280;70012;0.000;0.000;2024-02-26T00:07:01;98799.72;;;5.52;75.38
80648;BME280;70012;0.000;0.000;2024-02-26T00:09:28;98800.22;;;5.49;76.79
80648;BME280;70012;0.000;0.000;2024-02-26T00:11:55;98812.16;;;5.48;77.60
80648;BME280;70012;0.000;0.000;2024-02-26T00:14:22;98793.72;;;5.50;75.83
80648;BME280;70012;0.000;0.000;2024-02-26T00:16:48;98794.00;;;5.48;77.17
80648;BME280;70012;0.000;0.000;2024-02-26T00:19:15;98787.72;;;5.48;75.68
80648;BME280;70012;0.000;0.000;2024-02-26T00:21:42;98793.72;;;5.50;75.72
80648;BME280;70012;0.000;0.000;2024-02-26T00:24:10;98800.22;;;5.49;76.92
80648;BME280;70012;0.000;0.000;2024-02-26T00:26:38;98793.16;;;5.48;76.94
80648;BME280;70012;0.000;0.000;2024-02-26T00:29:05;98791.50;;;5.47;77.16
80648;BME280;70012;0.000;0.000;2024-02-26T00:31:32;98787.16;;;5.45;77.16
80648;BME280;70012;0.000;0.000;2024-02-26T00:33:59;98793.69;;;5.44;77.61
80648;BME280;70012;0.000;0.000;2024-02-26T00:36:26;98782.81;;;5.44;77.76
80648;BME280;70012;0.000;0.000;2024-02-26T00:38:52;98776.81;;;5.42;78.43
80648;BME280;70012;0.000;0.000;2024-02-26T00:41:20;98775.75;;;5.43;77.91
80648;BME280;70012;0.000;0.000;2024-02-26T00:43:47;98780.34;;;5.43;78.64
80648;BME280;70012;0.000;0.000;2024-02-26T00:46:14;98772.47;;;5.41;79.07
80648;BME280;70012;0.000;0.000;2024-02-26T00:48:40;98773.53;;;5.40;79.03
80648;BME280;70012;0.000;0.000;2024-02-26T00:51:07;98776.25;;;5.40;79.04
80648;BME280;70012;0.000;0.000;2024-02-26T00:53:35;98775.19;;;5.41;80.03
80648;BME280;70012;0.000;0.000;2024-02-26T00:56:02;98767.03;;;5.41;79.26
80648;BME280;70012;0.000;0.000;2024-02-26T00:58:29;98770.81;;;5.40;80.02
80648;BME280;70012;0.000;0.000;2024-02-26T01:00:56;98776.25;;;5.40;80.13
80648;BME280;70012;0.000;0.000;2024-02-26T01:03:22;98774.63;;;5.39;80.68
80648;BME280;70012;0.000;0.000;2024-02-26T01:05:49;98783.84;;;5.38;80.34
80648;BME280;70012;0.000;0.000;2024-02-26T01:08:18;98784.94;;;5.37;80.57
80648;BME280;70012;0.000;0.000;2024-02-26T01:10:45;98786.56;;;5.38;79.82
80648;BME280;70012;0.000;0.000;2024-02-26T01:13:12;98776.78;;;5.37;80.85
80648;BME280;70012;0.000;0.000;2024-02-26T01:15:38;98780.56;;;5.36;80.56
80648;BME280;70012;0.000;0.000;2024-02-26T01:18:05;98782.72;;;5.34;80.88
80648;BME280;70012;0.000;0.000;2024-02-26T01:20:32;98781.06;;;5.33;80.81
80648;BME280;70012;0.000;0.000;2024-02-26T01:22:59;98776.72;;;5.32;80.85
80648;BME280;70012;0.000;0.000;2024-02-26T01:25:25;98775.91;;;5.32;81.59
80648;BME280;70012;0.000;0.000;2024-02-26T01:27:52;98770.19;;;5.28;81.56
80648;BME280;70012;0.000;0.000;2024-02-26T01:30:19;98779.97;;;5.29;82.78
80648;BME280;70012;0.000;0.000;2024-02-26T01:32:47;98779.38;;;5.27;82.54
80648;BME280;70012;0.000;0.000;2024-02-26T01:35:14;98774.22;;;5.25;81.49
80648;BME280;70012;0.000;0.000;2024-02-26T01:37:41;98773.44;;;5.25;82.71
80648;BME280;70012;0.000;0.000;2024-02-26T01:40:09;98772.59;;;5.24;82.69
80648;BME280;70012;0.000;0.000;2024-02-26T01:42:39;98768.50;;;5.22;82.94
80648;BME280;70012;0.000;0.000;2024-02-26T01:45:09;98765.22;;;5.20;82.43
80648;BME280;70012;0.000;0.000;2024-02-26T01:47:41;98757.91;;;5.20;82.37
80648;BME280;70012;0.000;0.000;2024-02-26T01:50:12;98757.34;;;5.18;82.82
80648;BME280;70012;0.000;0.000;2024-02-26T01:52:39;98755.69;;;5.17;82.86
80648;BME280;70012;0.000;0.000;2024-02-26T01:55:09;98749.47;;;5.17;82.40
80648;BME280;70012;0.000;0.000;2024-02-26T01:57:36;98755.97;;;5.16;82.10
80648;BME280;70012;0.000;0.000;2024-02-26T02:00:03;98749.97;;;5.13;83.28
80648;BME280;70012;0.000;0.000;2024-02-26T02:02:32;98745.09;;;5.16;83.41
80648;BME280;70012;0.000;0.000;2024-02-26T02:04:59;98748.31;;;5.12;83.75
80648;BME280;70012;0.000;0.000;2024-02-26T02:07:27;98751.59;;;5.15;83.44
80648;BME280;70012;0.000;0.000;2024-02-26T02:09:54;98754.84;;;5.11;82.79
80648;BME280;70012;0.000;0.000;2024-02-26T02:12:21;98755.38;;;5.13;83.99
80648;BME280;70012;0.000;0.000;2024-02-26T02:14:48;98755.38;;;5.13;82.86
80648;BME280;70012;0.000;0.000;2024-02-26T02:17:15;98753.75;;;5.12;83.50
80648;BME280;70012;0.000;0.000;2024-02-26T02:19:41;98741.78;;;5.08;83.95
80648;BME280;70012;0.000;0.000;2024-02-26T02:22:08;98758.38;;;5.12;84.01
80648;BME280;70012;0.000;0.000;2024-02-26T02:24:35;98742.09;;;5.12;83.51
80648;BME280;70012;0.000;0.000;2024-02-26T02:27:03;98741.28;;;5.11;84.04
80648;BME280;70012;0.000;0.000;2024-02-26T02:29:31;98742.09;;;5.12;84.06
80648;BME280;70012;0.000;0.000;2024-02-26T02:31:59;98742.59;;;5.09;84.57
80648;BME280;70012;0.000;0.000;2024-02-26T02:34:25;98741.78;;;5.08;83.60
80648;BME280;70012;0.000;0.000;2024-02-26T02:36:53;98743.44;;;5.09;83.52
80648;BME280;70012;0.000;0.000;2024-02-26T02:39:21;98745.31;;;5.09;84.45
80648;BME280;70012;0.000;0.000;2024-02-26T02:41:48;98745.56;;;5.07;84.50
80648;BME280;70012;0.000;0.000;2024-02-26T02:44:16;98749.13;;;5.08;85.13
80648;BME280;70012;0.000;0.000;2024-02-26T02:46:42;98749.34;;;5.06;84.55
80648;BME280;70012;0.000;0.000;2024-02-26T02:49:11;98742.00;;;5.02;84.68
80648;BME280;70012;0.000;0.000;2024-02-26T02:51:38;98745.56;;;5.07;85.16
80648;BME280;70012;0.000;0.000;2024-02-26T02:54:08;98753.13;;;5.05;84.57
80648;BME280;70012;0.000;0.000;2024-02-26T02:56:35;98751.00;;;5.07;84.20
80648;BME280;70012;0.000;0.000;2024-02-26T02:59:03;98767.78;;;5.04;84.38
80648;BME280;70012;0.000;0.000;2024-02-26T03:01:29;98758.56;;;5.05;84.23
80648;BME280;70012;0.000;0.000;2024-02-26T03:03:56;98753.13;;;5.05;84.28
80648;BME280;70012;0.000;0.000;2024-02-26T03:06:23;98753.66;;;5.02;84.49
80648;BME280;70012;0.000;0.000;2024-02-26T03:08:51;98756.94;;;5.04;84.61
80648;BME280;70012;0.000;0.000;2024-02-26T03:11:18;98758.56;;;5.05;83.98
80648;BME280;70012;0.000;0.000;2024-02-26T03:13:46;98755.84;;;5.05;84.59
80648;BME280;70012;0.000;0.000;2024-02-26T03:16:13;98751.53;;;5.04;84.34
80648;BME280;70012;0.000;0.000;2024-02-26T03:18:40;98749.34;;;5.06;85.05
80648;BME280;70012;0.000;0.000;2024-02-26T03:21:07;98749.34;;;5.06;84.03
80648;BME280;70012;0.000;0.000;2024-02-26T03:23:34;98746.63;;;5.06;84.40
80648;BME280;70012;0.000;0.000;2024-02-26T03:26:04;98757.47;;;5.06;84.89
80648;BME280;70012;0.000;0.000;2024-02-26T03:28:31;98755.84;;;5.05;84.49
80648;BME280;70012;0.000;0.000;2024-02-26T03:31:01;98741.47;;;5.05;84.74
80648;BME280;70012;0.000;0.000;2024-02-26T03:33:29;98742.28;;;5.05;85.14
80648;BME280;70012;0.000;0.000;2024-02-26T03:35:56;98746.91;;;5.05;84.61
80648;BME280;70012;0.000;0.000;2024-02-26T03:38:23;98743.63;;;5.03;85.02
80648;BME280;70012;0.000;0.000;2024-02-26T03:40:50;98741.16;;;5.01;84.27
80648;BME280;70012;0.000;0.000;2024-02-26T03:43:16;98743.88;;;5.01;85.98
80648;BME280;70012;0.000;0.000;2024-02-26T03:45:43;98740.09;;;5.02;85.11
80648;BME280;70012;0.000;0.000;2024-02-26T03:48:10;98741.16;;;5.01;84.67
80648;BME280;70012;0.000;0.000;2024-02-26T03:50:37;98740.38;;;5.01;84.99
80648;BME280;70012;0.000;0.000;2024-02-26T03:53:04;98749.03;;;5.03;84.83
80648;BME280;70012;0.000;0.000;2024-02-26T03:55:31;98752.84;;;5.02;85.45
80648;BME280;70012;0.000;0.000;2024-02-26T03:57:58;98757.44;;;5.01;85.92
80648;BME280;70012;0.000;0.000;2024-02-26T04:00:25;98765.84;;;5.00;86.03
80648;BME280;70012;0.000;0.000;2024-02-26T04:02:53;98765.00;;;4.99;86.13
80648;BME280;70012;0.000;0.000;2024-02-26T04:05:20;98772.06;;;5.00;86.79
80648;BME280;70012;0.000;0.000;2024-02-26T04:07:47;98772.59;;;4.97;86.56
80648;BME280;70012;0.000;0.000;2024-02-26T04:10:14;98768.81;;;4.98;85.89
80648;BME280;70012;0.000;0.000;2024-02-26T04:12:41;98776.69;;;5.00;86.55
80648;BME280;70012;0.000;0.000;2024-02-26T04:15:09;98782.94;;;5.00;85.70
80648;BME280;70012;0.000;0.000;2024-02-26T04:17:37;98775.84;;;4.99;86.74
80648;BME280;70012;0.000;0.000;2024-02-26T04:20:05;98781.28;;;4.99;86.01
80648;BME280;70012;0.000;0.000;2024-02-26T04:22:32;98782.94;;;5.00;85.59
80648;BME280;70012;0.000;0.000;2024-02-26T04:24:59;98772.59;;;4.97;86.39
80648;BME280;70012;0.000;0.000;2024-02-26T04:27:26;98774.25;;;4.98;86.25
80648;BME280;70012;0.000;0.000;2024-02-26T04:29:53;98777.75;;;4.99;85.89
80648;BME280;70012;0.000;0.000;2024-02-26T04:32:20;98782.13;;;5.00;86.77
80648;BME280;70012;0.000;0.000;2024-02-26T04:34:47;98778.84;;;4.97;86.37
80648;BME280;70012;0.000;0.000;2024-02-26T04:37:14;98774.25;;;4.98;86.25
80648;BME280;70012;0.000;0.000;2024-02-26T04:39:41;98776.13;;;4.97;86.01
80648;BME280;70012;0.000;0.000;2024-02-26T04:42:08;98785.09;;;4.98;86.45
80648;BME280;70012;0.000;0.000;2024-02-26T04:44:34;98774.75;;;4.95;86.24
80648;BME280;70012;0.000;0.000;2024-02-26T04:47:01;98785.59;;;4.95;86.96
80648;BME280;70012;0.000;0.000;2024-02-26T04:49:28;98778.53;;;4.94;86.47
80648;BME280;70012;0.000;0.000;2024-02-26T04:51:55;98780.66;;;4.92;86.87
80648;BME280;70012;0.000;0.000;2024-02-26T04:54:22;98782.31;;;4.93;87.76
80648;BME280;70012;0.000;0.000;2024-02-26T04:56:49;98785.00;;;4.93;87.85
80648;BME280;70012;0.000;0.000;2024-02-26T04:59:18;98779.03;;;4.91;88.87
80648;BME280;70012;0.000;0.000;2024-02-26T05:01:47;98782.81;;;4.90;88.39
80648;BME280;70012;0.000;0.000;2024-02-26T05:04:14;98782.81;;;4.90;88.63
80648;BME280;70012;0.000;0.000;2024-02-26T05:06:41;98787.66;;;4.88;88.50
80648;BME280;70012;0.000;0.000;2024-02-26T05:09:08;98780.38;;;4.88;87.85
80648;BME280;70012;0.000;0.000;2024-02-26T05:11:35;98769.22;;;4.85;87.63
80648;BME280;70012;0.000;0.000;2024-02-26T05:14:03;98781.19;;;4.89;87.95
80648;BME280;70012;0.000;0.000;2024-02-26T05:16:30;98784.69;;;4.89;87.90
80648;BME280;70012;0.000;0.000;2024-02-26T05:18:57;98776.81;;;4.88;88.70
80648;BME280;70012;0.000;0.000;2024-02-26T05:21:24;98778.47;;;4.89;88.79
80648;BME280;70012;0.000;0.000;2024-02-26T05:23:52;98776.81;;;4.88;88.25
80648;BME280;70012;0.000;0.000;2024-02-26T05:26:23;98784.97;;;4.88;88.84
80648;BME280;70012;0.000;0.000;2024-02-26T05:28:50;98770.81;;;4.86;88.54
80648;BME280;70012;0.000;0.000;2024-02-26T05:31:18;98778.97;;;4.86;88.75
80648;BME280;70012;0.000;0.000;2024-02-26T05:33:46;98787.09;;;4.86;88.37
80648;BME280;70012;0.000;0.000;2024-02-26T05:36:18;98787.09;;;4.86;89.27
80648;BME280;70012;0.000;0.000;2024-02-26T05:38:48;98788.19;;;4.85;89.27
80648;BME280;70012;0.000;0.000;2024-02-26T05:41:16;98789.81;;;4.86;89.43
80648;BME280;70012;0.000;0.000;2024-02-26T05:43:49;98795.81;;;4.88;89.53
80648;BME280;70012;0.000;0.000;2024-02-26T05:46:20;98794.44;;;4.85;90.19
80648;BME280;70012;0.000;0.000;2024-02-26T05:48:50;98795.50;;;4.84;90.25
80648;BME280;70012;0.000;0.000;2024-02-26T05:51:18;98794.69;;;4.84;90.41
80648;BME280;70012;0.000;0.000;2024-02-26T05:53:45;98793.03;;;4.83;90.42
80648;BME280;70012;0.000;0.000;2024-02-26T05:56:13;98798.47;;;4.83;90.27
80648;BME280;70012;0.000;0.000;2024-02-26T05:58:40;98800.13;;;4.84;90.91
80648;BME280;70012;0.000;0.000;2024-02-26T06:01:07;98800.59;;;4.80;90.66
80648;BME280;70012;0.000;0.000;2024-02-26T06:03:34;98809.56;;;4.81;91.10
80648;BME280;70012;0.000;0.000;2024-02-26T06:06:01;98813.09;;;4.81;90.87
80648;BME280;70012;0.000;0.000;2024-02-26T06:08:30;98811.44;;;4.80;90.40
80648;BME280;70012;0.000;0.000;2024-02-26T06:10:57;98812.28;;;4.81;90.42
80648;BME280;70012;0.000;0.000;2024-02-26T06:13:24;98822.03;;;4.82;90.76
80648;BME280;70012;0.000;0.000;2024-02-26T06:15:52;98820.66;;;4.79;91.01
80648;BME280;70012;0.000;0.000;2024-02-26T06:18:19;98825.00;;;4.80;90.40
80648;BME280;70012;0.000;0.000;2024-02-26T06:20:46;98828.56;;;4.81;90.42
80648;BME280;70012;0.000;0.000;2024-02-26T06:23:16;98826.06;;;4.79;90.55
80648;BME280;70012;0.000;0.000;2024-02-26T06:25:42;98832.56;;;4.78;91.00
80648;BME280;70012;0.000;0.000;2024-02-26T06:28:09;98837.44;;;4.76;90.44
80648;BME280;70012;0.000;0.000;2024-02-26T06:30:38;98831.75;;;4.78;91.03
80648;BME280;70012;0.000;0.000;2024-02-26T06:33:06;98836.59;;;4.76;90.88
80648;BME280;70012;0.000;0.000;2024-02-26T06:35:34;98841.81;;;4.77;91.06
80648;BME280;70012;0.000;0.000;2024-02-26T06:38:00;98847.44;;;4.76;91.44
80648;BME280;70012;0.000;0.000;2024-02-26T06:40:27;98847.44;;;4.76;91.30
80648;BME280;70012;0.000;0.000;2024-02-26T06:42:54;98852.88;;;4.76;91.25
80648;BME280;70012;0.000;0.000;2024-02-26T06:45:22;98856.69;;;4.75;91.25
80648;BME280;70012;0.000;0.000;2024-02-26T06:47:49;98860.47;;;4.74;91.60
80648;BME280;70012;0.000;0.000;2024-02-26T06:50:18;98863.16;;;4.74;91.65
80648;BME280;70012;0.000;0.000;2024-02-26T06:52:46;98861.28;;;4.74;91.61
80648;BME280;70012;0.000;0.000;2024-02-26T06:55:14;98871.53;;;4.72;91.68
80648;BME280;70012;0.000;0.000;2024-02-26T06:57:42;98866.13;;;4.72;91.24
80648;BME280;70012;0.000;0.000;2024-02-26T07:00:10;98868.81;;;4.72;91.59
80648;BME280;70012;0.000;0.000;2024-02-26T07:02:43;98875.91;;;4.73;91.51
80648;BME280;70012;0.000;0.000;2024-02-26T07:05:10;98875.09;;;4.73;91.83
80648;BME280;70012;0.000;0.000;2024-02-26T07:07:39;98880.50;;;4.73;91.85
80648;BME280;70012;0.000;0.000;2024-02-26T07:10:07;98887.56;;;4.74;91.97
80648;BME280;70012;0.000;0.000;2024-02-26T07:12:34;98881.56;;;4.72;91.72
80648;BME280;70012;0.000;0.000;2024-02-26T07:15:01;98883.63;;;4.64;92.34
80648;BME280;70012;0.000;0.000;2024-02-26T07:17:29;98880.69;;;4.66;92.15
80648;BME280;70012;0.000;0.000;2024-02-26T07:19:56;98887.16;;;4.65;92.08
80648;BME280;70012;0.000;0.000;2024-02-26T07:22:23;98904.31;;;4.71;91.97
80648;BME280;70012;0.000;0.000;2024-02-26T07:24:52;98900.22;;;4.68;92.12
80648;BME280;70012;0.000;0.000;2024-02-26T07:27:23;98898.66;;;4.72;92.14
80648;BME280;70012;0.000;0.000;2024-02-26T07:29:50;98895.38;;;4.70;92.30
80648;BME280;70012;0.000;0.000;2024-02-26T07:32:17;98896.19;;;4.71;92.25
80648;BME280;70012;0.000;0.000;2024-02-26T07:34:44;98903.53;;;4.70;92.40
80648;BME280;70012;0.000;0.000;2024-02-26T07:37:11;98905.16;;;4.71;92.75
80648;BME280;70012;0.000;0.000;2024-02-26T07:39:38;98905.97;;;4.72;92.80
80648;BME280;70012;0.000;0.000;2024-02-26T07:42:05;98908.94;;;4.70;92.72
80648;BME280;70012;0.000;0.000;2024-02-26T07:44:33;98916.00;;;4.71;92.67
80648;BME280;70012;0.000;0.000;2024-02-26T07:47:01;98913.31;;;4.71;92.53
80648;BME280;70012;0.000;0.000;2024-02-26T07:49:30;98916.00;;;4.71;92.36
80648;BME280;70012;0.000;0.000;2024-02-26T07:52:01;98917.41;;;4.74;92.86
80648;BME280;70012;0.000;0.000;2024-02-26T07:54:28;98918.94;;;4.70;93.01
80648;BME280;70012;0.000;0.000;2024-02-26T07:56:55;98928.47;;;4.72;92.93
80648;BME280;70012;0.000;0.000;2024-02-26T07:59:22;98930.63;;;4.70;92.93
80648;BME280;70012;0.000;0.000;2024-02-26T08:01:50;98937.69;;;4.71;92.68
80648;BME280;70012;0.000;0.000;2024-02-26T08:04:24;98935.00;;;4.71;92.75
80648;BME280;70012;0.000;0.000;2024-02-26T08:06:51;98937.94;;;4.70;92.60
80648;BME280;70012;0.000;0.000;2024-02-26T08:09:19;98944.66;;;4.67;92.96
80648;BME280;70012;0.000;0.000;2024-02-26T08:11:46;98944.41;;;4.69;92.89
80648;BME280;70012;0.000;0.000;2024-02-26T08:14:15;98944.41;;;4.69;92.93
80648;BME280;70012;0.000;0.000;2024-02-26T08:16:43;98940.31;;;4.66;92.79
80648;BME280;70012;0.000;0.000;2024-02-26T08:19:13;98959.88;;;4.68;92.64
80648;BME280;70012;0.000;0.000;2024-02-26T08:21:41;98961.78;;;4.68;92.85
80648;BME280;70012;0.000;0.000;2024-02-26T08:24:09;98983.47;;;4.68;92.85
80648;BME280;70012;0.000;0.000;2024-02-26T08:26:37;98967.44;;;4.66;92.89
80648;BME280;70012;0.000;0.000;2024-02-26T08:29:04;98965.28;;;4.68;93.01
80648;BME280;70012;0.000;0.000;2024-02-26T08:31:31;98968.25;;;4.67;93.14
80648;BME280;70012;0.000;0.000;2024-02-26T08:33:57;98979.09;;;4.67;92.92
80648;BME280;70012;0.000;0.000;2024-02-26T08:36:27;98976.63;;;4.65;92.99
80648;BME280;70012;0.000;0.000;2024-02-26T08:38:55;98982.63;;;4.67;93.08
80648;BME280;70012;0.000;0.000;2024-02-26T08:41:22;98988.63;;;4.69;93.18
80648;BME280;70012;0.000;0.000;2024-02-26T08:43:50;98985.41;;;4.72;93.21
80648;BME280;70012;0.000;0.000;2024-02-26T08:46:17;98987.25;;;4.67;92.80
80648;BME280;70012;0.000;0.000;2024-02-26T08:48:44;98987.78;;;4.69;93.19
80648;BME280;70012;0.000;0.000;2024-02-26T08:51:11;99005.97;;;4.68;93.09
80648;BME280;70012;0.000;0.000;2024-02-26T08:53:39;98995.38;;;4.67;93.23
80648;BME280;70012;0.000;0.000;2024-02-26T08:56:09;98995.38;;;4.67;93.00
80648;BME280;70012;0.000;0.000;2024-02-26T08:58:38;98996.44;;;4.65;93.54
80648;BME280;70012;0.000;0.000;2024-02-26T09:01:06;99002.13;;;4.64;93.69
80648;BME280;70012;0.000;0.000;2024-02-26T09:03:36;99005.38;;;4.66;93.49
80648;BME280;70012;0.000;0.000;2024-02-26T09:06:03;99014.56;;;4.65;93.36
80648;BME280;70012;0.000;0.000;2024-02-26T09:08:30;99022.16;;;4.63;93.70
80648;BME280;70012;0.000;0.000;2024-02-26T09:10:57;99022.16;;;4.63;93.60
80648;BME280;70012;0.000;0.000;2024-02-26T09:13:24;99028.13;;;4.65;93.75
80648;BME280;70012;0.000;0.000;2024-02-26T09:15:50;99031.03;;;4.58;93.49
80648;BME280;70012;0.000;0.000;2024-02-26T09:18:18;99034.66;;;4.64;93.71
80648;BME280;70012;0.000;0.000;2024-02-26T09:20:45;99029.22;;;4.64;93.19
80648;BME280;70012;0.000;0.000;2024-02-26T09:23:13;99036.25;;;4.65;93.48
80648;BME280;70012;0.000;0.000;2024-02-26T09:25:39;99040.88;;;4.64;93.32
80648;BME280;70012;0.000;0.000;2024-02-26T09:28:06;99047.94;;;4.65;93.59
80648;BME280;70012;0.000;0.000;2024-02-26T09:30:33;99043.34;;;4.66;93.29
80648;BME280;70012;0.000;0.000;2024-02-26T09:33:00;99041.69;;;4.65;93.47
80648;BME280;70012;0.000;0.000;2024-02-26T09:35:28;99044.19;;;4.67;93.68
80648;BME280;70012;0.000;0.000;2024-02-26T09:37:57;99048.75;;;4.66;93.56
80648;BME280;70012;0.000;0.000;2024-02-26T09:40:24;99050.41;;;4.67;93.40
80648;BME280;70012;0.000;0.000;2024-02-26T09:42:53;99050.72;;;4.71;93.64
80648;BME280;70012;0.000;0.000;2024-02-26T09:45:25;99049.94;;;4.70;93.56
80648;BME280;70012;0.000;0.000;2024-02-26T09:47:56;99049.94;;;4.70;93.84
80648;BME280;70012;0.000;0.000;2024-02-26T09:50:24;99057.00;;;4.71;93.47
80648;BME280;70012;0.000;0.000;2024-02-26T09:52:51;99062.97;;;4.73;93.43
80648;BME280;70012;0.000;0.000;2024-02-26T09:55:21;99070.63;;;4.76;93.56
80648;BME280;70012;0.000;0.000;2024-02-26T09:57:51;99073.09;;;4.78;93.51
80648;BME280;70012;0.000;0.000;2024-02-26T10:00:21;99071.19;;;4.78;93.75
80648;BME280;70012;0.000;0.000;2024-02-26T10:02:48;99077.44;;;4.79;93.65
80648;BME280;70012;0.000;0.000;2024-02-26T10:05:17;99072.59;;;4.81;93.79
80648;BME280;70012;0.000;0.000;2024-02-26T10:07:47;99075.06;;;4.83;93.64
80648;BME280;70012;0.000;0.000;2024-02-26T10:10:15;99079.97;;;4.86;93.67
80648;BME280;70012;0.000;0.000;2024-02-26T10:12:42;99081.16;;;4.90;94.07
80648;BME280;70012;0.000;0.000;2024-02-26T10:15:09;99090.16;;;4.95;94.37
80648;BME280;70012;0.000;0.000;2024-02-26T10:17:38;99081.81;;;4.97;94.26
80648;BME280;70012;0.000;0.000;2024-02-26T10:20:16;99074.88;;;5.06;94.29
80648;BME280;70012;0.000;0.000;2024-02-26T10:22:45;99086.88;;;5.10;94.10
80648;BME280;70012;0.000;0.000;2024-02-26T10:25:13;99087.22;;;5.14;93.59
80648;BME280;70012;0.000;0.000;2024-02-26T10:27:41;99094.84;;;5.17;93.47
80648;BME280;70012;0.000;0.000;2024-02-26T10:30:17;99090.00;;;5.19;93.47
80648;BME280;70012;0.000;0.000;2024-02-26T10:32:45;99100.13;;;5.24;93.38
80648;BME280;70012;0.000;0.000;2024-02-26T10:35:15;99099.59;;;5.27;93.47
80648;BME280;70012;0.000;0.000;2024-02-26T10:37:46;99101.31;;;5.33;93.52
80648;BME280;70012;0.000;0.000;2024-02-26T10:40:14;99102.47;;;5.37;93.17
80648;BME280;70012;0.000;0.000;2024-02-26T10:42:43;99103.59;;;5.41;92.85
80648;BME280;70012;0.000;0.000;2024-02-26T10:45:11;99107.38;;;5.40;93.26
80648;BME280;70012;0.000;0.000;2024-02-26T10:47:41;99113.97;;;5.44;92.90
80648;BME280;70012;0.000;0.000;2024-02-26T10:50:09;99113.47;;;5.48;92.44
80648;BME280;70012;0.000;0.000;2024-02-26T10:52:37;99117.25;;;5.47;91.91
80648;BME280;70012;0.000;0.000;2024-02-26T10:55:05;99126.78;;;5.49;91.91
80648;BME280;70012;0.000;0.000;2024-02-26T10:57:38;99127.09;;;5.53;92.37
80648;BME280;70012;0.000;0.000;2024-02-26T11:00:08;99133.13;;;5.55;91.93
80648;BME280;70012;0.000;0.000;2024-02-26T11:02:40;99126.28;;;5.52;91.72
80648;BME280;70012;0.000;0.000;2024-02-26T11:05:08;99134.19;;;5.54;91.73
80648;BME280;70012;0.000;0.000;2024-02-26T11:07:35;99139.94;;;5.57;91.54
80648;BME280;70012;0.000;0.000;2024-02-26T11:10:04;99133.69;;;5.57;91.57
80648;BME280;70012;0.000;0.000;2024-02-26T11:12:34;99129.41;;;5.61;91.63
80648;BME280;70012;0.000;0.000;2024-02-26T11:15:07;99139.78;;;5.64;91.25
80648;BME280;70012;0.000;0.000;2024-02-26T11:17:38;99151.97;;;5.61;90.96
80648;BME280;70012;0.000;0.000;2024-02-26T11:20:09;99150.63;;;5.64;90.75
80648;BME280;70012;0.000;0.000;2024-02-26T11:22:43;99152.78;;;5.62;90.77
80648;BME280;70012;0.000;0.000;2024-02-26T11:25:10;99164.13;;;5.59;90.75
80648;BME280;70012;0.000;0.000;2024-02-26T11:27:44;99174.97;;;5.59;90.66
80648;BME280;70012;0.000;0.000;2024-02-26T11:30:13;99160.34;;;5.60;90.94
80648;BME280;70012;0.000;0.000;2024-02-26T11:32:44;99162.50;;;5.58;90.82
80648;BME280;70012;0.000;0.000;2024-02-26T11:35:11;99165.69;;;5.55;90.66
80648;BME280;70012;0.000;0.000;2024-02-26T11:37:51;99168.41;;;5.55;91.03
80648;BME280;70012;0.000;0.000;2024-02-26T11:40:19;99166.75;;;5.54;91.08
80648;BME280;70012;0.000;0.000;2024-02-26T11:42:47;99174.66;;;5.55;91.03
80648;BME280;70012;0.000;0.000;2024-02-26T11:48:13;99167.94;;;5.58;91.57
80648;BME280;70012;0.000;0.000;2024-02-26T11:50:42;99168.72;;;5.58;91.65
80648;BME280;70012;0.000;0.000;2024-02-26T11:53:23;99157.88;;;5.58;92.20
80648;BME280;70012;0.000;0.000;2024-02-26T11:58:46;99168.00;;;5.63;92.26
80648;BME280;70012;0.000;0.000;2024-02-26T12:04:04;99167.25;;;5.68;92.52
80648;BME280;70012;0.000;0.000;2024-02-26T12:06:42;99171.34;;;5.70;92.08
80648;BME280;70012;0.000;0.000;2024-02-26T12:09:12;99177.13;;;5.74;92.45
80648;BME280;70012;0.000;0.000;2024-02-26T12:11:43;99180.69;;;5.80;92.62
80648;BME280;70012;0.000;0.000;2024-02-26T12:14:11;99177.44;;;5.77;92.78
80648;BME280;70012;0.000;0.000;2024-02-26T12:16:38;99187.28;;;5.84;92.89
80648;BME280;70012;0.000;0.000;2024-02-26T12:19:07;99188.38;;;5.83;92.56
80648;BME280;70012;0.000;0.000;2024-02-26T12:21:38;99189.16;;;5.83;92.73
80648;BME280;70012;0.000;0.000;2024-02-26T12:24:14;99205.72;;;5.82;92.68
80648;BME280;70012;0.000;0.000;2024-02-26T12:26:44;99205.72;;;5.82;92.98
80648;BME280;70012;0.000;0.000;2024-02-26T12:29:12;99197.56;;;5.82;93.08
80648;BME280;70012;0.000;0.000;2024-02-26T12:31:39;99204.41;;;5.84;93.04
80648;BME280;70012;0.000;0.000;2024-02-26T12:34:07;99210.69;;;5.85;92.99
80648;BME280;70012;0.000;0.000;2024-02-26T12:36:36;99217.25;;;5.89;92.79
80648;BME280;70012;0.000;0.000;2024-02-26T12:39:05;99226.44;;;5.88;93.16
80648;BME280;70012;0.000;0.000;2024-02-26T12:41:33;99226.44;;;5.88;93.15
80648;BME280;70012;0.000;0.000;2024-02-26T12:44:00;99229.75;;;5.90;93.09
80648;BME280;70012;0.000;0.000;2024-02-26T12:46:29;99227.28;;;5.88;92.66
80648;BME280;70012;0.000;0.000;2024-02-26T12:48:58;99231.88;;;5.88;92.85
80648;BME280;70012;0.000;0.000;2024-02-26T12:51:26;99230.25;;;5.87;93.14
80648;BME280;70012;0.000;0.000;2024-02-26T12:53:55;99240.03;;;5.88;92.77
80648;BME280;70012;0.000;0.000;2024-02-26T12:56:25;99247.69;;;5.91;92.79
80648;BME280;70012;0.000;0.000;2024-02-26T12:58:54;99248.25;;;5.93;92.93
80648;BME280;70012;0.000;0.000;2024-02-26T13:01:23;99248.84;;;5.95;92.73
80648;BME280;70012;0.000;0.000;2024-02-26T13:03:52;99254.28;;;5.95;92.44
80648;BME280;70012;0.000;0.000;2024-02-26T13:06:20;99257.56;;;5.97;92.45
80648;BME280;70012;0.000;0.000;2024-02-26T13:08:48;99264.66;;;5.98;92.53
80648;BME280;70012;0.000;0.000;2024-02-26T13:11:16;99262.50;;;6.00;92.95
80648;BME280;70012;0.000;0.000;2024-02-26T13:13:47;99269.59;;;6.01;92.77
80648;BME280;70012;0.000;0.000;2024-02-26T13:16:15;99273.38;;;6.00;92.80
80648;BME280;70012;0.000;0.000;2024-02-26T13:18:41;99282.38;;;6.01;92.70
80648;BME280;70012;0.000;0.000;2024-02-26T13:21:10;99283.19;;;6.01;92.83
80648;BME280;70012;0.000;0.000;2024-02-26T13:23:38;99289.22;;;6.03;92.87
80648;BME280;70012;0.000;0.000;2024-02-26T13:26:06;99293.56;;;6.04;93.34
80648;BME280;70012;0.000;0.000;2024-02-26T13:28:34;99288.13;;;6.04;93.75
80648;BME280;70012;0.000;0.000;2024-02-26T13:31:01;99291.41;;;6.06;93.51
80648;BME280;70012;0.000;0.000;2024-02-26T13:33:30;99290.91;;;6.09;93.30
80648;BME280;70012;0.000;0.000;2024-02-26T13:35:58;99297.41;;;6.08;93.47